createdAt,value
2017-08-28T00:00:05.471Z,5.27
2017-08-28T00:02:31.735Z,3.90
2017-08-28T00:04:57.995Z,6.63
2017-08-28T00:07:24.288Z,7.70
2017-08-28T00:09:50.562Z,5.50
2017-08-28T00:12:16.827Z,4.70
2017-08-28T00:14:43.123Z,5.37
2017-08-28T00:17:09.368Z,5.67
2017-08-28T00:19:35.639Z,5.73
2017-08-28T00:22:01.899Z,5.70
2017-08-28T00:24:28.135Z,5.13
2017-08-28T00:26:54.395Z,4.70
2017-08-28T00:29:20.641Z,4.73
2017-08-28T00:31:46.900Z,5.57
2017-08-28T00:34:13.164Z,5.13
2017-08-28T00:36:39.444Z,4.80
2017-08-28T00:39:05.704Z,4.73
2017-08-28T00:41:31.960Z,5.00
2017-08-28T00:43:58.241Z,5.10
2017-08-28T00:46:24.518Z,5.87
2017-08-28T00:48:50.814Z,4.90
2017-08-28T00:51:17.090Z,5.23
2017-08-28T00:53:43.360Z,4.80
2017-08-28T00:56:09.628Z,5.10
2017-08-28T00:58:35.929Z,5.40
2017-08-28T01:01:02.204Z,5.20
2017-08-28T01:03:28.504Z,6.03
2017-08-28T01:05:54.790Z,5.20
2017-08-28T01:08:21.083Z,5.20
2017-08-28T01:10:47.355Z,5.30
2017-08-28T01:13:13.639Z,6.10
2017-08-28T01:15:39.914Z,5.57
2017-08-28T01:18:06.192Z,5.13
2017-08-28T01:20:32.466Z,5.30
2017-08-28T01:22:58.754Z,4.13
2017-08-28T01:25:25.029Z,5.20
2017-08-28T01:27:51.309Z,4.47
2017-08-28T01:30:17.587Z,5.10
2017-08-28T01:32:43.865Z,6.33
2017-08-28T01:35:10.146Z,5.47
2017-08-28T01:37:36.415Z,5.10
2017-08-28T01:40:02.797Z,5.20
2017-08-28T01:42:29.063Z,6.00
2017-08-28T01:44:55.347Z,4.60
2017-08-28T01:47:21.589Z,5.90
2017-08-28T01:49:47.851Z,6.43
2017-08-28T01:52:14.116Z,5.80
2017-08-28T01:54:40.385Z,6.53
2017-08-28T01:57:06.640Z,5.17
2017-08-28T01:59:32.901Z,4.97
2017-08-28T02:01:59.162Z,5.10
2017-08-28T02:04:25.427Z,4.10
2017-08-28T02:06:51.697Z,4.70
2017-08-28T02:09:17.965Z,4.30
2017-08-28T02:11:44.301Z,4.53
2017-08-28T02:14:10.563Z,4.40
2017-08-28T02:16:36.840Z,4.10
2017-08-28T02:19:03.095Z,4.50
2017-08-28T02:21:29.357Z,4.30
2017-08-28T02:23:55.617Z,4.50
2017-08-28T02:26:21.905Z,4.40
2017-08-28T02:28:48.145Z,4.30
2017-08-28T02:31:14.455Z,4.37
2017-08-28T02:33:40.707Z,4.20
2017-08-28T02:36:06.962Z,3.73
2017-08-28T02:38:33.237Z,4.50
2017-08-28T02:40:59.493Z,4.60
2017-08-28T02:43:25.761Z,4.40
2017-08-28T02:45:52.009Z,4.73
2017-08-28T02:48:18.270Z,4.27
2017-08-28T02:50:44.512Z,4.57
2017-08-28T02:53:10.801Z,3.80
2017-08-28T02:55:37.058Z,4.77
2017-08-28T02:58:03.553Z,5.67
2017-08-28T03:00:29.836Z,4.93
2017-08-28T03:02:56.100Z,4.83
2017-08-28T03:05:22.358Z,4.70
2017-08-28T03:07:48.640Z,4.87
2017-08-28T03:10:15.647Z,6.17
2017-08-28T03:12:42.675Z,5.23
2017-08-28T03:15:08.966Z,4.13
2017-08-28T03:17:35.225Z,4.87
2017-08-28T03:20:01.479Z,7.17
2017-08-28T03:22:27.736Z,5.20
2017-08-28T03:24:54.975Z,4.87
2017-08-28T03:27:21.241Z,5.30
2017-08-28T03:29:47.521Z,5.10
2017-08-28T03:32:13.789Z,5.30
2017-08-28T03:34:40.062Z,5.63
2017-08-28T03:37:06.324Z,4.97
2017-08-28T03:39:32.596Z,6.33
2017-08-28T03:41:58.893Z,5.67
2017-08-28T03:44:25.390Z,5.83
2017-08-28T03:46:51.669Z,6.77
2017-08-28T03:49:17.943Z,6.17
2017-08-28T03:51:44.220Z,5.93
2017-08-28T03:54:10.487Z,4.70
2017-08-28T03:56:36.764Z,4.50
2017-08-28T03:59:03.036Z,4.10
2017-08-28T04:01:29.308Z,5.03
2017-08-28T04:03:55.600Z,5.20
2017-08-28T04:06:21.880Z,5.53
2017-08-28T04:08:48.155Z,6.53
2017-08-28T04:11:14.417Z,6.90
2017-08-28T04:13:40.700Z,6.77
2017-08-28T04:16:06.968Z,6.57
2017-08-28T04:18:33.228Z,5.40
2017-08-28T04:20:59.510Z,5.03
2017-08-28T04:23:25.792Z,5.23
2017-08-28T04:25:52.047Z,7.03
2017-08-28T04:28:18.309Z,8.37
2017-08-28T04:30:44.561Z,8.80
2017-08-28T04:33:10.858Z,10.10
2017-08-28T04:35:37.116Z,9.37
2017-08-28T04:38:04.062Z,9.30
2017-08-28T04:40:30.342Z,9.87
2017-08-28T04:42:56.647Z,9.60
2017-08-28T04:45:22.921Z,8.57
2017-08-28T04:47:49.210Z,9.17
2017-08-28T04:50:15.474Z,7.90
2017-08-28T04:52:41.736Z,8.10
2017-08-28T04:55:08.028Z,8.83
2017-08-28T04:57:34.289Z,6.77
2017-08-28T05:00:00.568Z,7.00
2017-08-28T05:02:26.870Z,6.67
2017-08-28T05:04:53.156Z,7.10
2017-08-28T05:07:19.481Z,6.50
2017-08-28T05:09:46.013Z,7.57
2017-08-28T05:12:12.265Z,7.77
2017-08-28T05:14:38.586Z,8.13
2017-08-28T05:17:04.861Z,9.73
2017-08-28T05:19:31.124Z,9.87
2017-08-28T05:21:57.403Z,10.10
2017-08-28T05:24:23.692Z,10.00
2017-08-28T05:26:49.979Z,10.47
2017-08-28T05:29:16.262Z,9.80
2017-08-28T05:31:42.561Z,8.87
2017-08-28T05:34:08.834Z,9.30
2017-08-28T05:36:35.116Z,9.30
2017-08-28T05:39:01.395Z,8.30
2017-08-28T05:41:27.706Z,8.97
2017-08-28T05:43:53.966Z,8.70
2017-08-28T05:46:20.252Z,8.70
2017-08-28T05:48:46.545Z,11.50
2017-08-28T05:51:12.871Z,9.50
2017-08-28T05:53:39.141Z,11.20
2017-08-28T05:56:05.461Z,9.80
2017-08-28T05:58:31.774Z,10.73
2017-08-28T06:00:58.049Z,10.67
2017-08-28T06:03:24.396Z,10.53
2017-08-28T06:05:50.806Z,11.07
2017-08-28T06:08:17.120Z,9.33
2017-08-28T06:10:43.426Z,9.50
2017-08-28T06:13:09.715Z,10.33
2017-08-28T06:15:35.974Z,8.17
2017-08-28T06:18:02.276Z,9.20
2017-08-28T06:20:29.376Z,10.10
2017-08-28T06:22:55.665Z,10.00
2017-08-28T06:25:21.940Z,9.67
2017-08-28T06:27:48.259Z,10.47
2017-08-28T06:30:14.529Z,10.23
2017-08-28T06:32:41.133Z,9.17
2017-08-28T06:35:07.442Z,9.03
2017-08-28T06:37:33.709Z,8.60
2017-08-28T06:40:00.014Z,8.97
2017-08-28T06:42:26.297Z,8.80
2017-08-28T06:44:52.629Z,8.73
2017-08-28T06:47:18.908Z,7.50
2017-08-28T06:49:45.203Z,7.83
2017-08-28T06:52:11.455Z,7.40
2017-08-28T06:54:37.784Z,7.07
2017-08-28T06:57:04.072Z,7.80
2017-08-28T06:59:30.348Z,7.80
2017-08-28T07:01:56.616Z,7.00
2017-08-28T07:04:22.910Z,7.87
2017-08-28T07:06:49.180Z,6.90
2017-08-28T07:09:15.449Z,7.33
2017-08-28T07:11:41.748Z,7.00
2017-08-28T07:14:08.010Z,6.33
2017-08-28T07:16:34.273Z,6.90
2017-08-28T07:19:00.512Z,5.50
2017-08-28T07:21:27.646Z,6.67
2017-08-28T07:23:53.948Z,6.17
2017-08-28T07:26:20.252Z,6.17
2017-08-28T07:28:46.585Z,7.83
2017-08-28T07:31:12.882Z,6.40
2017-08-28T07:33:46.041Z,6.30
2017-08-28T07:36:12.339Z,5.10
2017-08-28T07:38:38.622Z,4.63
2017-08-28T07:41:04.892Z,4.57
2017-08-28T07:43:31.186Z,4.03
2017-08-28T07:45:57.460Z,3.10
2017-08-28T07:48:23.744Z,3.57
2017-08-28T07:50:50.000Z,3.43
2017-08-28T07:53:16.276Z,2.70
2017-08-28T07:55:42.545Z,2.57
2017-08-28T07:58:08.861Z,2.20
2017-08-28T08:00:35.137Z,2.13
2017-08-28T08:03:01.445Z,1.80
2017-08-28T08:05:27.720Z,4.07
2017-08-28T08:07:54.020Z,2.20
2017-08-28T08:10:20.312Z,2.73
2017-08-28T08:12:46.608Z,2.03
2017-08-28T08:15:12.908Z,2.60
2017-08-28T08:17:40.231Z,1.77
2017-08-28T08:20:06.540Z,4.93
2017-08-28T08:22:32.838Z,2.17
2017-08-28T08:24:59.152Z,1.87
2017-08-28T08:27:25.465Z,1.97
2017-08-28T08:29:51.802Z,3.50
2017-08-28T08:32:18.851Z,1.80
2017-08-28T08:34:45.173Z,1.80
2017-08-28T08:37:11.462Z,1.93
2017-08-28T08:39:37.740Z,2.73
2017-08-28T08:42:04.035Z,3.27
2017-08-28T08:44:30.337Z,2.40
2017-08-28T08:46:56.597Z,1.43
2017-08-28T08:49:22.878Z,1.73
2017-08-28T08:51:49.169Z,2.50
2017-08-28T08:54:15.462Z,1.50
2017-08-28T08:56:41.765Z,2.40
2017-08-28T08:59:08.052Z,2.40
2017-08-28T09:01:34.350Z,2.03
2017-08-28T09:04:00.620Z,1.73
2017-08-28T09:06:26.913Z,2.33
2017-08-28T09:08:53.218Z,2.27
2017-08-28T09:11:19.516Z,1.87
2017-08-28T09:13:45.808Z,1.50
2017-08-28T09:16:12.203Z,2.37
2017-08-28T09:18:38.476Z,2.20
2017-08-28T09:21:04.775Z,2.43
2017-08-28T09:23:31.055Z,1.70
2017-08-28T09:25:57.376Z,5.90
2017-08-28T09:28:23.659Z,10.23
2017-08-28T09:30:50.067Z,1.50
2017-08-28T09:33:16.349Z,2.40
2017-08-28T09:35:42.616Z,2.53
2017-08-28T09:38:08.895Z,2.10
2017-08-28T09:40:35.171Z,1.90
2017-08-28T09:43:01.470Z,2.00
2017-08-28T09:45:27.731Z,2.30
2017-08-28T09:47:54.020Z,2.30
2017-08-28T09:50:20.300Z,2.40
2017-08-28T09:52:46.614Z,3.20
2017-08-28T09:55:12.889Z,2.00
2017-08-28T09:57:39.296Z,3.23
2017-08-28T10:00:05.599Z,1.70
2017-08-28T10:02:31.887Z,1.80
2017-08-28T10:04:58.188Z,1.77
2017-08-28T10:07:24.502Z,3.73
2017-08-28T10:09:50.780Z,2.23
2017-08-28T10:12:17.091Z,2.20
2017-08-28T10:14:43.380Z,1.70
2017-08-28T10:17:09.724Z,2.17
2017-08-28T10:19:36.100Z,1.80
2017-08-28T10:22:02.483Z,2.40
2017-08-28T10:24:28.777Z,2.63
2017-08-28T10:26:54.988Z,1.97
2017-08-28T10:29:21.445Z,2.37
2017-08-28T10:31:47.764Z,1.53
2017-08-28T10:34:14.075Z,1.80
2017-08-28T10:36:40.347Z,1.77
2017-08-28T10:39:06.668Z,1.83
2017-08-28T10:41:32.960Z,1.93
2017-08-28T10:43:59.267Z,3.33
2017-08-28T10:46:25.568Z,1.70
2017-08-28T10:48:51.874Z,2.60
2017-08-28T10:51:18.157Z,1.80
2017-08-28T10:53:45.098Z,1.83
2017-08-28T10:56:11.392Z,1.90
2017-08-28T10:58:37.668Z,1.57
2017-08-28T11:01:03.982Z,2.03
2017-08-28T11:03:30.276Z,3.20
2017-08-28T11:05:56.605Z,3.00
2017-08-28T11:08:22.880Z,1.57
2017-08-28T11:10:49.204Z,3.20
2017-08-28T11:13:15.484Z,2.90
2017-08-28T11:15:41.788Z,1.73
2017-08-28T11:18:08.085Z,2.20
2017-08-28T11:20:35.189Z,2.30
2017-08-28T11:23:01.485Z,2.60
2017-08-28T11:25:27.747Z,2.30
2017-08-28T11:27:54.060Z,2.47
2017-08-28T11:30:20.329Z,1.40
2017-08-28T11:32:46.634Z,1.50
2017-08-28T11:35:12.916Z,3.77
2017-08-28T11:37:39.205Z,2.00
2017-08-28T11:40:06.374Z,2.20
2017-08-28T11:42:32.660Z,2.13
2017-08-28T11:44:58.992Z,1.40
2017-08-28T11:47:25.256Z,2.13
2017-08-28T11:49:51.563Z,4.30
2017-08-28T11:52:17.832Z,1.93
2017-08-28T11:54:44.109Z,1.43
2017-08-28T11:57:10.404Z,1.30
2017-08-28T11:59:36.704Z,2.80
2017-08-28T12:02:03.000Z,1.27
2017-08-28T12:04:29.292Z,2.17
2017-08-28T12:06:55.568Z,1.90
2017-08-28T12:09:21.864Z,1.60
2017-08-28T12:11:48.146Z,2.30
2017-08-28T12:14:14.407Z,1.93
2017-08-28T12:16:40.677Z,1.93
2017-08-28T12:19:06.961Z,1.30
2017-08-28T12:21:33.532Z,1.47
2017-08-28T12:23:59.855Z,1.30
2017-08-28T12:26:26.158Z,1.43
2017-08-28T12:28:52.884Z,1.30
2017-08-28T12:31:19.172Z,2.37
2017-08-28T12:33:45.472Z,1.70
2017-08-28T12:36:11.752Z,2.93
2017-08-28T12:38:38.021Z,2.37
2017-08-28T12:41:04.311Z,1.30
2017-08-28T12:43:30.622Z,1.47
2017-08-28T12:45:56.904Z,1.13
2017-08-28T12:48:23.198Z,1.17
2017-08-28T12:50:49.470Z,2.27
2017-08-28T12:53:15.764Z,1.30
2017-08-28T12:55:42.097Z,1.17
2017-08-28T12:58:08.389Z,1.33
2017-08-28T13:00:35.548Z,1.80
2017-08-28T13:03:01.833Z,1.47
2017-08-28T13:05:28.104Z,1.47
2017-08-28T13:07:54.433Z,1.20
2017-08-28T13:10:20.737Z,1.77
2017-08-28T13:12:47.024Z,1.43
2017-08-28T13:15:13.317Z,1.20
2017-08-28T13:17:39.589Z,1.83
2017-08-28T13:20:05.886Z,1.20
2017-08-28T13:22:32.168Z,1.43
2017-08-28T13:24:58.464Z,1.67
2017-08-28T13:27:24.824Z,2.03
2017-08-28T13:29:51.135Z,1.23
2017-08-28T13:32:17.433Z,2.00
2017-08-28T13:34:43.733Z,2.70
2017-08-28T13:37:10.028Z,3.63
2017-08-28T13:39:36.353Z,2.47
2017-08-28T13:42:02.681Z,1.60
2017-08-28T13:44:29.198Z,2.07
2017-08-28T13:46:55.676Z,3.10
2017-08-28T13:49:21.964Z,1.70
2017-08-28T13:51:48.231Z,1.83
2017-08-28T13:54:14.484Z,1.87
2017-08-28T13:56:40.774Z,3.20
2017-08-28T13:59:07.051Z,1.87
2017-08-28T14:01:33.321Z,1.37
2017-08-28T14:03:59.614Z,1.70
2017-08-28T14:06:25.897Z,2.20
2017-08-28T14:08:52.191Z,2.10
2017-08-28T14:11:18.457Z,2.13
2017-08-28T14:13:44.729Z,1.97
2017-08-28T14:16:11.030Z,1.50
2017-08-28T14:18:37.311Z,1.60
2017-08-28T14:21:03.597Z,1.80
2017-08-28T14:23:29.908Z,2.30
2017-08-28T14:25:56.188Z,1.50
2017-08-28T14:28:22.482Z,1.47
2017-08-28T14:30:48.771Z,2.60
2017-08-28T14:33:15.051Z,1.50
2017-08-28T14:35:41.363Z,1.43
2017-08-28T14:38:07.620Z,1.30
2017-08-28T14:40:33.901Z,2.80
2017-08-28T14:43:00.189Z,2.47
2017-08-28T14:45:26.473Z,1.60
2017-08-28T14:47:52.768Z,1.20
2017-08-28T14:50:19.041Z,1.40
2017-08-28T14:52:45.354Z,2.17
2017-08-28T14:55:11.629Z,1.60
2017-08-28T14:57:37.949Z,1.87
2017-08-28T15:00:04.498Z,1.93
2017-08-28T15:02:30.794Z,1.57
2017-08-28T15:04:57.088Z,3.33
2017-08-28T15:07:23.393Z,1.20
2017-08-28T15:09:49.805Z,1.27
2017-08-28T15:12:16.099Z,1.70
2017-08-28T15:14:42.378Z,1.57
2017-08-28T15:17:15.736Z,2.17
2017-08-28T15:19:42.041Z,2.50
2017-08-28T15:22:08.373Z,1.83
2017-08-28T15:24:34.636Z,2.33
2017-08-28T15:27:00.941Z,2.70
2017-08-28T15:29:27.238Z,1.60
2017-08-28T15:31:53.504Z,2.50
2017-08-28T15:34:19.789Z,2.40
2017-08-28T15:36:46.054Z,2.43
2017-08-28T15:39:12.338Z,1.50
2017-08-28T15:41:39.637Z,1.43
2017-08-28T15:44:05.947Z,2.00
2017-08-28T15:46:32.213Z,1.30
2017-08-28T15:48:58.491Z,1.40
2017-08-28T15:51:24.777Z,2.23
2017-08-28T15:53:51.093Z,1.43
2017-08-28T15:56:18.184Z,1.43
2017-08-28T15:58:44.473Z,1.97
2017-08-28T16:01:10.768Z,1.30
2017-08-28T16:03:37.037Z,1.10
2017-08-28T16:06:03.343Z,3.33
2017-08-28T16:08:29.651Z,1.20
2017-08-28T16:10:55.924Z,2.90
2017-08-28T16:13:22.286Z,1.33
2017-08-28T16:15:48.557Z,1.30
2017-08-28T16:18:14.832Z,1.60
2017-08-28T16:20:41.160Z,2.23
2017-08-28T16:23:07.511Z,1.87
2017-08-28T16:25:33.810Z,2.43
2017-08-28T16:28:00.086Z,1.13
2017-08-28T16:30:26.397Z,4.03
2017-08-28T16:32:52.707Z,1.53
2017-08-28T16:35:18.996Z,1.47
2017-08-28T16:37:45.316Z,2.53
2017-08-28T16:40:11.600Z,1.80
2017-08-28T16:42:37.880Z,1.93
2017-08-28T16:45:04.214Z,1.17
2017-08-28T16:47:30.537Z,1.37
2017-08-28T16:49:56.804Z,1.53
2017-08-28T16:52:23.098Z,1.83
2017-08-28T16:54:49.387Z,1.23
2017-08-28T16:57:15.673Z,1.37
2017-08-28T16:59:42.080Z,1.23
2017-08-28T17:02:08.468Z,1.30
2017-08-28T17:04:34.808Z,1.63
2017-08-28T17:07:01.233Z,1.57
2017-08-28T17:09:27.628Z,1.40
2017-08-28T17:11:54.391Z,2.07
2017-08-28T17:14:21.829Z,1.70
2017-08-28T17:16:49.196Z,2.00
2017-08-28T17:19:16.528Z,1.20
2017-08-28T17:21:43.826Z,1.37
2017-08-28T17:24:10.417Z,1.20
2017-08-28T17:26:37.449Z,1.30
2017-08-28T17:29:03.952Z,1.83
2017-08-28T17:31:30.303Z,1.57
2017-08-28T17:33:56.660Z,1.53
2017-08-28T17:36:23.084Z,1.70
2017-08-28T17:38:50.256Z,3.63
2017-08-28T17:41:16.632Z,2.60
2017-08-28T17:43:44.647Z,1.30
2017-08-28T17:46:14.202Z,1.60
2017-08-28T17:48:41.612Z,2.50
2017-08-28T17:51:07.913Z,2.00
2017-08-28T17:53:34.692Z,1.60
2017-08-28T17:56:01.022Z,1.30
2017-08-28T17:58:27.387Z,3.03
2017-08-28T18:00:53.717Z,2.07
2017-08-28T18:03:20.023Z,4.90
2017-08-28T18:05:46.321Z,2.40
2017-08-28T18:08:12.617Z,4.70
2017-08-28T18:10:38.941Z,2.03
2017-08-28T18:13:05.226Z,2.27
2017-08-28T18:15:31.696Z,2.37
2017-08-28T18:17:57.982Z,3.43
2017-08-28T18:20:24.268Z,1.80
2017-08-28T18:22:50.585Z,2.87
2017-08-28T18:25:16.870Z,2.63
2017-08-28T18:27:43.170Z,1.77
2017-08-28T18:30:09.435Z,1.73
2017-08-28T18:32:35.716Z,1.73
2017-08-28T18:35:02.187Z,2.10
2017-08-28T18:37:28.602Z,2.83
2017-08-28T18:39:54.869Z,1.83
2017-08-28T18:42:21.157Z,5.57
2017-08-28T18:44:47.431Z,2.60
2017-08-28T18:47:13.712Z,2.13
2017-08-28T18:49:39.993Z,2.20
2017-08-28T18:52:06.275Z,2.07
2017-08-28T18:54:32.533Z,2.20
2017-08-28T18:56:58.775Z,1.83
2017-08-28T18:59:25.097Z,1.70
2017-08-28T19:01:51.466Z,3.00
2017-08-28T19:04:19.248Z,2.67
2017-08-28T19:06:45.590Z,3.30
2017-08-28T19:09:11.951Z,3.30
2017-08-28T19:11:38.340Z,1.80
2017-08-28T19:14:04.763Z,2.43
2017-08-28T19:16:31.141Z,3.07
2017-08-28T19:18:58.265Z,1.90
2017-08-28T19:21:24.717Z,1.70
2017-08-28T19:23:50.978Z,2.00
2017-08-28T19:26:17.355Z,2.00
2017-08-28T19:28:43.708Z,2.17
2017-08-28T19:31:10.298Z,1.60
2017-08-28T19:33:40.141Z,3.03
2017-08-28T19:36:07.011Z,1.90
2017-08-28T19:38:33.271Z,6.53
2017-08-28T19:40:59.571Z,2.53
2017-08-28T19:43:25.836Z,1.80
2017-08-28T19:45:52.131Z,4.20
2017-08-28T19:48:18.397Z,1.57
2017-08-28T19:50:44.656Z,1.90
2017-08-28T19:53:10.931Z,1.47
2017-08-28T19:55:37.181Z,1.87
2017-08-28T19:58:03.470Z,3.10
2017-08-28T20:00:29.738Z,2.77
2017-08-28T20:02:56.041Z,2.90
2017-08-28T20:05:22.294Z,1.50
2017-08-28T20:07:48.577Z,4.53
2017-08-28T20:10:14.824Z,2.87
2017-08-28T20:12:41.070Z,2.43
2017-08-28T20:15:07.363Z,2.20
2017-08-28T20:17:33.621Z,2.40
2017-08-28T20:19:59.897Z,2.07
2017-08-28T20:22:26.153Z,1.40
2017-08-28T20:24:52.440Z,4.80
2017-08-28T20:27:18.712Z,2.30
2017-08-28T20:29:44.964Z,1.93
2017-08-28T20:32:11.211Z,2.23
2017-08-28T20:34:37.488Z,2.43
2017-08-28T20:37:03.740Z,2.83
2017-08-28T20:39:29.991Z,3.07
2017-08-28T20:41:56.251Z,2.43
2017-08-28T20:44:22.510Z,2.47
2017-08-28T20:46:48.768Z,1.90
2017-08-28T20:49:15.022Z,3.30
2017-08-28T20:51:41.279Z,3.77
2017-08-28T20:54:07.537Z,1.60
2017-08-28T20:56:33.810Z,1.80
2017-08-28T20:59:00.066Z,1.97
2017-08-28T21:01:26.317Z,3.03
2017-08-28T21:03:52.599Z,1.77
2017-08-28T21:06:18.874Z,3.73
2017-08-28T21:08:45.136Z,2.83
2017-08-28T21:11:11.412Z,2.07
2017-08-28T21:13:37.666Z,2.53
2017-08-28T21:16:03.934Z,2.20
2017-08-28T21:18:30.241Z,3.10
2017-08-28T21:20:56.553Z,2.27
2017-08-28T21:23:22.837Z,1.80
2017-08-28T21:25:49.104Z,2.37
2017-08-28T21:28:15.377Z,2.77
2017-08-28T21:30:41.678Z,3.03
2017-08-28T21:33:07.977Z,2.10
2017-08-28T21:35:34.245Z,1.77
2017-08-28T21:38:00.517Z,2.53
2017-08-28T21:40:26.814Z,2.43
2017-08-28T21:42:53.581Z,2.37
2017-08-28T21:45:20.014Z,3.33
2017-08-28T21:47:47.226Z,3.33
2017-08-28T21:50:13.782Z,2.10
2017-08-28T21:52:40.342Z,3.83
2017-08-28T21:55:06.779Z,3.53
2017-08-28T21:57:33.902Z,2.50
2017-08-28T22:00:00.969Z,2.33
2017-08-28T22:02:28.659Z,2.43
2017-08-28T22:04:56.565Z,2.33
2017-08-28T22:07:23.052Z,2.90
2017-08-28T22:09:49.676Z,2.20
2017-08-28T22:12:16.321Z,3.10
2017-08-28T22:14:42.701Z,3.20
2017-08-28T22:17:09.035Z,2.40
2017-08-28T22:19:35.890Z,3.10
2017-08-28T22:22:02.457Z,3.53
2017-08-28T22:24:28.818Z,2.57
2017-08-28T22:26:55.155Z,2.80
2017-08-28T22:29:21.479Z,3.20
2017-08-28T22:31:47.863Z,3.20
2017-08-28T22:34:14.191Z,3.10
2017-08-28T22:36:40.518Z,2.67
2017-08-28T22:39:06.956Z,2.60
2017-08-28T22:41:33.273Z,5.97
2017-08-28T22:43:59.537Z,3.80
2017-08-28T22:46:25.857Z,3.60
2017-08-28T22:48:52.180Z,4.73
2017-08-28T22:51:18.569Z,3.63
2017-08-28T22:53:44.860Z,3.03
2017-08-28T22:56:11.174Z,3.37
2017-08-28T22:58:37.482Z,4.20
2017-08-28T23:01:03.822Z,6.57
2017-08-28T23:03:30.145Z,3.73
2017-08-28T23:05:56.429Z,3.60
2017-08-28T23:08:23.018Z,3.57
2017-08-28T23:10:49.400Z,5.37
2017-08-28T23:13:15.672Z,3.70
2017-08-28T23:15:41.965Z,3.07
2017-08-28T23:18:08.365Z,5.83
2017-08-28T23:20:34.806Z,3.00
2017-08-28T23:23:02.784Z,3.00
2017-08-28T23:25:29.165Z,3.73
2017-08-28T23:27:55.509Z,3.87
2017-08-28T23:30:21.796Z,3.40
2017-08-28T23:32:48.074Z,2.70
2017-08-28T23:35:14.332Z,3.73
2017-08-28T23:37:40.645Z,3.50
2017-08-28T23:40:06.907Z,3.40
2017-08-28T23:42:33.309Z,3.00
2017-08-28T23:44:59.589Z,4.93
2017-08-28T23:47:25.888Z,3.30
2017-08-28T23:49:52.162Z,3.50
2017-08-28T23:52:18.437Z,3.57
2017-08-28T23:54:44.760Z,2.63
2017-08-28T23:57:11.095Z,3.10
2017-08-28T23:59:37.421Z,3.57
